createdAt,value
2018-08-10T00:00:24.747Z,58.80
2018-08-10T00:02:53.337Z,57.90
2018-08-10T00:05:21.870Z,57.80
2018-08-10T00:07:50.214Z,57.90
2018-08-10T00:10:18.802Z,57.80
2018-08-10T00:12:47.751Z,58.10
2018-08-10T00:15:17.507Z,58.10
2018-08-10T00:17:45.949Z,58.20
2018-08-10T00:20:15.584Z,58.30
2018-08-10T00:22:44.471Z,58.40
2018-08-10T00:25:16.426Z,58.30
2018-08-10T00:27:44.917Z,58.40
2018-08-10T00:30:16.209Z,58.50
2018-08-10T00:32:45.782Z,58.80
2018-08-10T00:35:14.076Z,59.10
2018-08-10T00:37:43.398Z,59.30
2018-08-10T00:40:26.622Z,59.30
2018-08-10T00:42:54.966Z,59.00
2018-08-10T00:45:23.360Z,59.50
2018-08-10T00:47:51.784Z,59.50
2018-08-10T00:50:20.620Z,59.50
2018-08-10T00:52:49.002Z,59.10
2018-08-10T00:55:18.266Z,58.80
2018-08-10T00:57:48.112Z,58.80
2018-08-10T01:00:22.524Z,58.90
2018-08-10T01:02:51.671Z,58.70
2018-08-10T01:05:19.898Z,58.30
2018-08-10T01:07:48.304Z,58.30
2018-08-10T01:10:18.874Z,58.90
2018-08-10T01:12:47.216Z,59.40
2018-08-10T01:15:16.624Z,59.40
2018-08-10T01:17:45.523Z,59.50
2018-08-10T01:20:16.392Z,59.70
2018-08-10T01:22:50.446Z,58.80
2018-08-10T01:25:19.952Z,58.40
2018-08-10T01:27:53.937Z,58.20
2018-08-10T01:30:22.271Z,58.70
2018-08-10T01:32:51.333Z,58.70
2018-08-10T01:35:20.194Z,58.50
2018-08-10T01:37:48.324Z,58.20
2018-08-10T01:40:17.703Z,58.10
2018-08-10T01:42:46.053Z,57.60
2018-08-10T01:45:14.493Z,57.70
2018-08-10T01:47:42.874Z,57.90
2018-08-10T01:50:11.267Z,57.30
2018-08-10T01:52:39.633Z,57.50
2018-08-10T01:55:08.718Z,57.30
2018-08-10T01:57:37.615Z,57.00
2018-08-10T02:00:07.255Z,56.60
2018-08-10T02:02:35.795Z,57.80
2018-08-10T02:05:05.165Z,57.10
2018-08-10T02:07:37.506Z,57.30
2018-08-10T02:10:10.561Z,57.10
2018-08-10T02:12:39.562Z,57.10
2018-08-10T02:15:11.720Z,57.40
2018-08-10T02:17:40.053Z,57.80
2018-08-10T02:20:11.201Z,57.40
2018-08-10T02:22:39.509Z,57.40
2018-08-10T02:25:09.668Z,57.60
2018-08-10T02:27:38.070Z,57.60
2018-08-10T02:30:08.974Z,57.90
2018-08-10T02:32:37.639Z,58.10
2018-08-10T02:35:06.212Z,57.90
2018-08-10T02:37:34.456Z,58.10
2018-08-10T02:40:02.909Z,57.90
2018-08-10T02:42:32.427Z,58.10
2018-08-10T02:45:00.656Z,58.00
2018-08-10T02:47:33.791Z,58.20
2018-08-10T02:50:02.230Z,58.10
2018-08-10T02:52:30.502Z,58.20
2018-08-10T02:54:58.728Z,58.40
2018-08-10T02:57:27.091Z,58.50
2018-08-10T02:59:55.364Z,58.30
2018-08-10T03:02:23.556Z,58.30
2018-08-10T03:04:51.827Z,58.40
2018-08-10T03:07:20.052Z,58.40
2018-08-10T03:09:48.300Z,58.60
2018-08-10T03:12:16.542Z,58.30
2018-08-10T03:14:44.838Z,57.90
2018-08-10T03:17:13.095Z,58.30
2018-08-10T03:19:41.272Z,58.10
2018-08-10T03:22:09.584Z,58.30
2018-08-10T03:24:37.955Z,58.40
2018-08-10T03:27:07.867Z,58.40
2018-08-10T03:29:36.590Z,58.60
2018-08-10T03:32:05.434Z,58.70
2018-08-10T03:34:33.773Z,58.70
2018-08-10T03:37:02.006Z,58.80
2018-08-10T03:39:30.207Z,59.40
2018-08-10T03:41:58.379Z,59.10
2018-08-10T03:44:26.672Z,59.10
2018-08-10T03:46:55.550Z,59.00
2018-08-10T03:49:23.852Z,58.60
2018-08-10T03:51:52.280Z,58.30
2018-08-10T03:54:26.072Z,58.00
2018-08-10T03:56:54.336Z,58.10
2018-08-10T03:59:22.749Z,57.90
2018-08-10T04:01:51.128Z,57.80
2018-08-10T04:04:19.478Z,57.70
2018-08-10T04:06:47.910Z,57.60
2018-08-10T04:09:16.227Z,57.60
2018-08-10T04:11:51.253Z,57.60
2018-08-10T04:14:19.508Z,57.90
2018-08-10T04:16:47.885Z,58.00
2018-08-10T04:19:16.162Z,58.30
2018-08-10T04:21:45.240Z,58.50
2018-08-10T04:24:13.404Z,58.60
2018-08-10T04:26:41.649Z,59.00
2018-08-10T04:29:09.902Z,59.00
2018-08-10T04:31:38.247Z,58.40
2018-08-10T04:34:06.374Z,58.40
2018-08-10T04:36:34.653Z,58.70
2018-08-10T04:39:05.113Z,58.30
2018-08-10T04:41:34.529Z,58.30
2018-08-10T04:44:02.859Z,58.10
2018-08-10T04:46:31.969Z,58.10
2018-08-10T04:49:00.494Z,57.90
2018-08-10T04:51:28.871Z,57.90
2018-08-10T04:54:04.375Z,57.60
2018-08-10T04:56:32.659Z,58.10
2018-08-10T04:59:01.046Z,57.80
2018-08-10T05:01:29.349Z,57.80
2018-08-10T05:03:57.795Z,57.80
2018-08-10T05:06:26.097Z,58.00
2018-08-10T05:08:54.386Z,58.10
2018-08-10T05:11:22.754Z,58.20
2018-08-10T05:13:50.934Z,58.20
2018-08-10T05:16:42.488Z,58.30
2018-08-10T05:19:11.180Z,58.50
2018-08-10T05:21:39.651Z,58.80
2018-08-10T05:24:08.518Z,58.70
2018-08-10T05:26:36.868Z,58.40
2018-08-10T05:29:05.618Z,58.60
2018-08-10T05:31:33.912Z,58.50
2018-08-10T05:34:02.247Z,58.50
2018-08-10T05:36:30.618Z,57.50
2018-08-10T05:38:59.006Z,56.30
2018-08-10T05:41:27.458Z,54.70
2018-08-10T05:43:56.270Z,54.00
2018-08-10T05:46:24.742Z,53.80
2018-08-10T05:48:54.821Z,53.20
2018-08-10T05:57:00.546Z,53.00
2018-08-10T05:59:39.965Z,53.00
2018-08-10T06:02:10.690Z,53.00
2018-08-10T06:04:39.606Z,52.80
2018-08-10T06:07:08.797Z,52.70
2018-08-10T06:09:38.723Z,52.20
2018-08-10T06:12:06.987Z,51.50
2018-08-10T06:14:40.569Z,51.40
2018-08-10T06:17:11.467Z,51.20
2018-08-10T06:19:43.598Z,51.20
2018-08-10T06:26:39.385Z,51.30
2018-08-10T06:29:10.753Z,51.20
2018-08-10T06:31:40.497Z,51.20
2018-08-10T06:34:09.749Z,51.10
2018-08-10T06:36:43.511Z,51.20
2018-08-10T06:39:26.549Z,51.10
2018-08-10T06:41:59.083Z,50.70
2018-08-10T06:44:27.715Z,50.60
2018-08-10T06:46:55.981Z,50.00
2018-08-10T06:49:24.350Z,50.20
2018-08-10T06:51:53.766Z,50.30
2018-08-10T06:54:22.173Z,50.30
2018-08-10T06:56:51.516Z,49.90
2018-08-10T06:59:19.849Z,49.60
2018-08-10T07:02:00.978Z,49.40
2018-08-10T07:04:30.937Z,48.50
2018-08-10T07:07:00.587Z,48.00
2018-08-10T07:09:35.075Z,48.20
2018-08-10T07:14:13.969Z,48.10
2018-08-10T07:16:42.514Z,47.50
2018-08-10T07:19:19.600Z,44.70
2018-08-10T07:21:51.354Z,43.50
2018-08-10T07:24:22.144Z,42.90
2018-08-10T07:27:04.198Z,43.60
2018-08-10T07:29:39.738Z,45.00
2018-08-10T07:32:08.373Z,45.50
2018-08-10T07:34:49.048Z,45.70
2018-08-10T07:37:18.351Z,45.80
2018-08-10T07:39:48.574Z,46.30
2018-08-10T07:42:17.096Z,46.50
2018-08-10T07:44:47.051Z,45.90
2018-08-10T07:47:15.890Z,45.60
2018-08-10T07:49:46.171Z,46.70
2018-08-10T07:52:20.738Z,46.20
2018-08-10T07:54:49.157Z,46.10
2018-08-10T07:57:17.615Z,45.50
2018-08-10T07:59:50.723Z,45.60
2018-08-10T08:02:20.280Z,45.10
2018-08-10T08:04:50.037Z,44.80
2018-08-10T08:07:20.497Z,43.30
2018-08-10T08:09:48.880Z,42.60
2018-08-10T08:12:22.538Z,41.80
2018-08-10T08:14:58.800Z,41.50
2018-08-10T08:17:28.430Z,39.50
2018-08-10T08:20:06.064Z,38.30
2018-08-10T08:22:34.619Z,37.30
2018-08-10T08:25:05.225Z,37.30
2018-08-10T08:27:36.942Z,37.70
2018-08-10T08:30:07.639Z,37.30
2018-08-10T08:32:36.286Z,37.90
2018-08-10T08:35:05.067Z,38.10
2018-08-10T08:37:40.252Z,39.10
2018-08-10T08:40:21.587Z,40.60
2018-08-10T08:42:52.153Z,40.80
2018-08-10T08:46:02.334Z,39.30
2018-08-10T08:48:37.917Z,39.50
2018-08-10T08:51:10.362Z,39.80
2018-08-10T08:53:38.685Z,39.60
2018-08-10T08:56:11.680Z,40.40
2018-08-10T08:58:59.116Z,42.40
2018-08-10T09:01:37.200Z,43.20
2018-08-10T09:04:26.396Z,43.70
2018-08-10T09:06:58.288Z,43.70
2018-08-10T09:12:19.112Z,43.70
2018-08-10T09:15:05.000Z,41.70
2018-08-10T09:17:33.664Z,39.50
2018-08-10T09:20:03.145Z,38.40
2018-08-10T09:22:31.882Z,37.50
2018-08-10T09:25:00.397Z,37.10
2018-08-10T09:27:28.952Z,36.20
2018-08-10T09:29:57.455Z,34.60
2018-08-10T09:35:35.190Z,27.60
2018-08-10T09:38:14.587Z,26.60
2018-08-10T10:05:10.999Z,25.70
2018-08-10T10:07:39.271Z,21.70
2018-08-10T10:10:08.141Z,20.30
2018-08-10T10:12:36.596Z,18.40
2018-08-10T10:15:06.285Z,17.80
2018-08-10T10:17:36.758Z,17.30
2018-08-10T10:20:06.965Z,17.70
2018-08-10T10:22:36.043Z,17.70
2018-08-10T10:25:05.525Z,18.30
2018-08-10T10:27:44.568Z,19.10
2018-08-10T10:30:21.370Z,18.40
2018-08-10T10:32:52.793Z,17.40
2018-08-10T10:35:21.659Z,17.60
2018-08-10T10:37:51.619Z,16.80
2018-08-10T10:45:56.269Z,13.80
2018-08-10T10:48:35.468Z,14.70
2018-08-10T10:51:23.675Z,14.80
2018-08-10T10:53:52.554Z,14.70
2018-08-10T10:56:26.157Z,15.10
2018-08-10T11:00:32.908Z,14.80
2018-08-10T11:17:58.480Z,20.30
2018-08-10T11:20:40.903Z,21.20
2018-08-10T11:23:13.721Z,19.20
2018-08-10T11:25:41.924Z,18.20
2018-08-10T11:28:12.922Z,17.40
2018-08-10T11:30:42.220Z,16.80
2018-08-10T11:33:14.196Z,16.60
2018-08-10T11:35:44.851Z,16.30
2018-08-10T11:38:13.515Z,15.60
2018-08-10T11:44:29.854Z,14.10
2018-08-10T11:46:58.125Z,14.10
2018-08-10T11:49:26.358Z,13.90
2018-08-10T11:51:54.580Z,15.30
2018-08-10T11:54:22.818Z,14.80
2018-08-10T11:56:51.731Z,14.40
2018-08-10T11:59:20.572Z,13.20
2018-08-10T12:01:49.071Z,12.80
2018-08-10T12:04:17.274Z,12.50
2018-08-10T12:06:45.620Z,12.40
2018-08-10T12:09:15.068Z,12.60
2018-08-10T12:11:43.246Z,12.40
2018-08-10T12:14:11.390Z,12.40
2018-08-10T12:16:39.532Z,12.90
2018-08-10T12:19:07.743Z,12.40
2018-08-10T12:21:35.851Z,12.20
2018-08-10T12:24:04.141Z,12.30
2018-08-10T12:26:32.380Z,12.20
2018-08-10T12:29:00.504Z,11.50
2018-08-10T12:31:28.825Z,11.80
2018-08-10T12:33:57.051Z,11.70
2018-08-10T12:36:25.324Z,11.80
2018-08-10T12:38:53.545Z,12.30
2018-08-10T12:41:21.749Z,11.90
2018-08-10T12:43:50.045Z,12.30
2018-08-10T12:46:18.279Z,12.30
2018-08-10T12:48:46.448Z,12.80
2018-08-10T12:51:14.825Z,12.40
2018-08-10T12:53:43.027Z,12.10
2018-08-10T12:56:11.269Z,12.20
2018-08-10T12:58:39.543Z,11.90
2018-08-10T13:01:08.303Z,12.00
2018-08-10T13:03:36.496Z,12.20
2018-08-10T13:06:05.345Z,12.60
2018-08-10T13:08:33.654Z,13.30
2018-08-10T13:11:01.906Z,13.30
2018-08-10T13:13:30.125Z,13.20
2018-08-10T13:15:58.262Z,13.40
2018-08-10T13:18:26.519Z,13.50
2018-08-10T13:20:54.690Z,13.40
2018-08-10T13:23:22.922Z,13.50
2018-08-10T13:25:51.793Z,14.20
2018-08-10T13:28:20.006Z,14.20
2018-08-10T13:30:48.265Z,14.40
2018-08-10T13:33:16.702Z,14.00
2018-08-10T13:35:44.940Z,13.80
2018-08-10T13:38:13.310Z,14.00
2018-08-10T13:40:41.462Z,13.80
2018-08-10T13:43:09.730Z,13.80
2018-08-10T13:45:38.072Z,13.50
2018-08-10T13:48:06.600Z,12.90
2018-08-10T13:50:34.808Z,12.80
2018-08-10T13:53:03.041Z,13.00
2018-08-10T13:55:31.286Z,13.80
2018-08-10T13:57:59.490Z,13.90
2018-08-10T14:00:27.777Z,13.80
2018-08-10T14:02:55.964Z,14.40
2018-08-10T14:05:24.588Z,15.00
2018-08-10T14:07:53.336Z,14.90
2018-08-10T14:10:21.683Z,14.70
2018-08-10T14:12:49.876Z,15.50
2018-08-10T14:15:18.157Z,16.70
2018-08-10T14:17:46.369Z,17.80
2018-08-10T14:20:14.641Z,18.30
2018-08-10T14:22:42.878Z,19.20
2018-08-10T14:25:11.843Z,20.40
2018-08-10T14:27:40.365Z,21.00
2018-08-10T14:30:13.601Z,21.50
2018-08-10T14:32:41.825Z,22.00
2018-08-10T14:35:10.593Z,22.60
2018-08-10T14:37:38.891Z,22.70
2018-08-10T14:40:09.991Z,22.80
2018-08-10T14:42:38.227Z,23.30
2018-08-10T14:45:10.789Z,23.40
2018-08-10T14:47:38.933Z,23.80
2018-08-10T14:50:10.738Z,23.90
2018-08-10T14:52:39.489Z,24.10
2018-08-10T14:55:10.497Z,24.50
2018-08-10T14:57:38.781Z,24.90
2018-08-10T15:00:16.897Z,24.60
2018-08-10T15:03:13.747Z,24.20
2018-08-10T15:05:55.840Z,23.80
2018-08-10T15:08:35.795Z,24.70
2018-08-10T15:11:14.416Z,24.40
2018-08-10T15:27:53.646Z,23.80
2018-08-10T15:43:56.566Z,24.00
2018-08-10T15:46:25.566Z,24.20
2018-08-10T15:48:58.580Z,24.60
2018-08-10T15:51:27.080Z,24.50
2018-08-10T15:53:55.281Z,24.50
2018-08-10T15:56:23.635Z,24.70
2018-08-10T15:58:51.756Z,24.60
2018-08-10T16:01:19.950Z,24.70
2018-08-10T16:03:48.326Z,24.60
2018-08-10T16:06:16.546Z,24.10
2018-08-10T16:08:44.677Z,24.10
2018-08-10T16:11:13.612Z,23.90
2018-08-10T16:13:42.930Z,24.50
2018-08-10T16:16:11.851Z,24.10
2018-08-10T16:18:40.920Z,24.20
2018-08-10T16:21:12.911Z,23.50
2018-08-10T16:23:41.145Z,23.50
2018-08-10T16:26:09.367Z,23.60
2018-08-10T16:28:38.465Z,23.70
2018-08-10T16:31:06.665Z,23.70
2018-08-10T16:33:34.849Z,23.60
2018-08-10T16:36:05.390Z,24.10
2018-08-10T16:38:33.957Z,23.70
2018-08-10T16:41:03.447Z,23.80
2018-08-10T16:43:32.263Z,23.90
2018-08-10T16:46:01.358Z,24.30
2018-08-10T16:48:30.890Z,24.10
2018-08-10T16:50:59.838Z,25.00
2018-08-10T16:53:29.562Z,24.50
2018-08-10T16:55:59.860Z,24.50
2018-08-10T16:58:28.782Z,24.50
2018-08-10T17:01:00.834Z,24.70
2018-08-10T17:03:29.622Z,24.50
2018-08-10T17:05:57.958Z,24.30
2018-08-10T17:08:27.410Z,24.50
2018-08-10T17:10:56.272Z,24.80
2018-08-10T17:13:25.712Z,25.10
2018-08-10T17:15:54.666Z,25.50
2018-08-10T17:18:24.555Z,25.90
2018-08-10T17:20:53.522Z,25.70
2018-08-10T17:23:23.006Z,26.10
2018-08-10T17:25:51.298Z,26.40
2018-08-10T17:28:19.710Z,26.10
2018-08-10T17:30:49.508Z,26.00
2018-08-10T17:33:18.728Z,26.10
2018-08-10T17:35:48.577Z,26.20
2018-08-10T17:38:17.096Z,25.80
2018-08-10T17:40:47.466Z,26.20
2018-08-10T17:43:17.184Z,26.10
2018-08-10T17:45:45.454Z,26.20
2018-08-10T17:48:14.582Z,26.10
2018-08-10T17:50:42.710Z,26.00
2018-08-10T17:53:11.460Z,26.50
2018-08-10T17:55:39.824Z,26.50
2018-08-10T17:58:08.252Z,26.60
2018-08-10T18:00:38.502Z,26.80
2018-08-10T18:03:08.738Z,27.30
2018-08-10T18:05:38.348Z,27.10
2018-08-10T18:08:07.421Z,27.30
2018-08-10T18:10:36.647Z,27.50
2018-08-10T18:13:04.968Z,27.60
2018-08-10T18:15:34.068Z,27.90
2018-08-10T18:18:02.277Z,28.30
2018-08-10T18:20:30.589Z,28.60
2018-08-10T18:22:58.884Z,29.00
2018-08-10T18:25:27.099Z,29.00
2018-08-10T18:27:55.308Z,29.20
2018-08-10T18:30:24.704Z,29.90
2018-08-10T18:32:53.260Z,30.00
2018-08-10T18:35:21.719Z,29.60
2018-08-10T18:37:51.385Z,30.00
2018-08-10T18:40:20.231Z,30.10
2018-08-10T18:42:49.095Z,30.90
2018-08-10T18:45:19.769Z,30.90
2018-08-10T18:47:48.193Z,31.30
2018-08-10T18:50:17.967Z,30.80
2018-08-10T18:52:46.311Z,30.90
2018-08-10T18:55:19.798Z,31.40
2018-08-10T18:57:48.807Z,31.60
2018-08-10T19:00:20.178Z,31.80
2018-08-10T19:02:48.382Z,31.70
2018-08-10T19:05:17.242Z,32.20
2018-08-10T19:07:46.289Z,31.60
2018-08-10T19:10:18.799Z,31.80
2018-08-10T19:12:47.118Z,31.90
2018-08-10T19:15:15.433Z,32.40
2018-08-10T19:17:43.748Z,32.90
2018-08-10T19:20:13.041Z,32.90
2018-08-10T19:22:41.544Z,33.20
2018-08-10T19:25:10.947Z,34.00
2018-08-10T19:27:39.517Z,34.20
2018-08-10T19:30:11.398Z,34.40
2018-08-10T19:32:39.750Z,34.50
2018-08-10T19:35:08.036Z,35.00
2018-08-10T19:37:36.896Z,34.90
2018-08-10T19:40:08.169Z,34.90
2018-08-10T19:42:36.516Z,35.10
2018-08-10T19:45:06.815Z,35.40
2018-08-10T19:47:35.201Z,34.80
2018-08-10T19:50:04.068Z,34.90
2018-08-10T19:52:32.361Z,34.10
2018-08-10T19:55:00.544Z,34.70
2018-08-10T19:57:28.865Z,35.70
2018-08-10T19:59:57.318Z,35.50
2018-08-10T20:02:25.550Z,36.80
2018-08-10T20:04:53.764Z,36.90
2018-08-10T20:07:21.990Z,36.70
2018-08-10T20:09:50.262Z,36.60
2018-08-10T20:12:18.868Z,37.30
2018-08-10T20:14:47.052Z,37.60
2018-08-10T20:17:15.226Z,37.80
2018-08-10T20:19:43.430Z,38.40
2018-08-10T20:22:16.937Z,39.00
2018-08-10T20:24:46.270Z,38.50
2018-08-10T20:27:14.595Z,39.00
2018-08-10T20:29:42.973Z,38.90
2018-08-10T20:32:11.183Z,39.00
2018-08-10T20:34:39.481Z,39.20
2018-08-10T20:37:07.863Z,40.00
2018-08-10T20:39:36.178Z,38.80
2018-08-10T20:42:04.673Z,38.40
2018-08-10T20:44:32.982Z,37.30
2018-08-10T20:47:01.267Z,37.50
2018-08-10T20:49:30.911Z,39.10
2018-08-10T20:51:59.291Z,39.30
2018-08-10T20:54:28.268Z,39.50
2018-08-10T20:56:56.500Z,39.70
2018-08-10T20:59:24.756Z,39.30
2018-08-10T21:01:52.965Z,37.70
2018-08-10T21:04:21.328Z,37.10
2018-08-10T21:06:49.475Z,38.30
2018-08-10T21:09:17.634Z,39.70
2018-08-10T21:11:45.897Z,39.90
2018-08-10T21:14:13.689Z,39.60
2018-08-10T21:16:41.877Z,40.00
2018-08-10T21:19:10.868Z,40.10
2018-08-10T21:21:39.016Z,40.50
2018-08-10T21:24:07.286Z,41.10
2018-08-10T21:26:35.601Z,39.80
2018-08-10T21:29:03.916Z,39.60
2018-08-10T21:31:33.116Z,39.30
2018-08-10T21:34:01.922Z,39.40
2018-08-10T21:36:30.219Z,42.20
2018-08-10T21:38:58.419Z,42.80
2018-08-10T21:41:26.650Z,43.30
2018-08-10T21:43:54.951Z,43.70
2018-08-10T21:46:23.202Z,44.30
2018-08-10T21:48:52.113Z,44.90
2018-08-10T21:51:20.286Z,45.20
2018-08-10T21:53:48.458Z,45.10
2018-08-10T21:56:16.818Z,44.80
2018-08-10T21:58:44.985Z,44.10
2018-08-10T22:01:13.179Z,44.90
2018-08-10T22:03:41.407Z,45.00
2018-08-10T22:06:09.661Z,44.50
2018-08-10T22:08:38.009Z,43.70
2018-08-10T22:11:06.249Z,43.60
2018-08-10T22:13:40.221Z,43.40
2018-08-10T22:16:13.997Z,43.60
2018-08-10T22:18:49.510Z,44.30
2018-08-10T22:21:17.787Z,44.40
2018-08-10T22:23:46.065Z,44.00
2018-08-10T22:26:14.531Z,44.40
2018-08-10T22:28:42.641Z,43.90
2018-08-10T22:31:10.845Z,44.30
2018-08-10T22:33:39.094Z,44.00
2018-08-10T22:36:07.307Z,44.10
2018-08-10T22:38:37.136Z,44.80
2018-08-10T22:41:05.495Z,44.50
2018-08-10T22:43:33.737Z,44.60
2018-08-10T22:46:01.973Z,45.70
2018-08-10T22:48:30.429Z,45.00
2018-08-10T22:50:58.803Z,45.10
2018-08-10T22:53:26.966Z,45.50
2018-08-10T22:55:56.187Z,46.00
2018-08-10T22:58:24.333Z,45.30
2018-08-10T23:00:52.629Z,45.90
2018-08-10T23:03:21.125Z,46.00
2018-08-10T23:05:49.149Z,46.70
2018-08-10T23:08:17.387Z,46.70
2018-08-10T23:10:45.577Z,46.40
2018-08-10T23:13:13.976Z,47.10
2018-08-10T23:15:42.247Z,47.90
2018-08-10T23:18:11.116Z,48.30
2018-08-10T23:20:39.909Z,48.70
2018-08-10T23:23:08.807Z,48.30
2018-08-10T23:25:36.997Z,48.00
2018-08-10T23:28:05.222Z,47.90
2018-08-10T23:30:33.430Z,45.80
2018-08-10T23:33:01.536Z,46.50
2018-08-10T23:35:29.833Z,45.00
2018-08-10T23:37:58.035Z,44.30
2018-08-10T23:40:26.262Z,43.60
2018-08-10T23:42:54.446Z,43.50
2018-08-10T23:45:22.636Z,43.40
2018-08-10T23:47:50.971Z,43.60
2018-08-10T23:50:19.138Z,46.80
2018-08-10T23:52:48.152Z,47.60
2018-08-10T23:55:18.568Z,48.60
2018-08-10T23:57:47.035Z,48.60
